sensor_id;sensor_type;location;lat;lon;timestamp;pressure;altitude;pressure_sealevel;temperature;humidity
3844;BME280;1937;51.444;6.484;2023-03-16T00:00:23;66483.59;;;3.99;74.07
3844;BME280;1937;51.444;6.484;2023-03-16T00:02:53;66486.94;;;3.82;74.88
3844;BME280;1937;51.444;6.484;2023-03-16T00:05:21;66489.09;;;3.91;74.13
3844;BME280;1937;51.444;6.484;2023-03-16T00:07:52;66487.13;;;3.91;74.10
3844;BME280;1937;51.444;6.484;2023-03-16T00:10:20;66492.69;;;3.87;74.98
3844;BME280;1937;51.444;6.484;2023-03-16T00:12:53;66516.41;;;3.86;75.04
3844;BME280;1937;51.444;6.484;2023-03-16T00:15:21;66484.47;;;3.87;75.10
3844;BME280;1937;51.444;6.484;2023-03-16T00:17:49;66526.06;;;4.01;74.57
3844;BME280;1937;51.444;6.484;2023-03-16T00:20:20;66495.66;;;3.94;74.62
3844;BME280;1937;51.444;6.484;2023-03-16T00:22:50;66529.56;;;3.93;74.87
3844;BME280;1937;51.444;6.484;2023-03-16T00:25:18;66507.16;;;3.89;74.94
3844;BME280;1937;51.444;6.484;2023-03-16T00:27:46;66500.19;;;3.94;74.46
3844;BME280;1937;51.444;6.484;2023-03-16T00:30:15;66508.16;;;3.96;74.60
3844;BME280;1937;51.444;6.484;2023-03-16T00:32:43;66510.47;;;3.98;74.44
3844;BME280;1937;51.444;6.484;2023-03-16T00:35:11;66566.28;;;4.16;74.02
3844;BME280;1937;51.444;6.484;2023-03-16T00:37:41;66542.03;;;4.22;73.92
3844;BME280;1937;51.444;6.484;2023-03-16T00:40:11;66516.66;;;4.10;74.18
3844;BME280;1937;51.444;6.484;2023-03-16T00:42:40;66497.16;;;4.13;74.18
3844;BME280;1937;51.444;6.484;2023-03-16T00:45:10;66578.28;;;4.22;73.77
3844;BME280;1937;51.444;6.484;2023-03-16T00:47:39;66513.31;;;4.01;74.89
3844;BME280;1937;51.444;6.484;2023-03-16T00:50:08;66538.59;;;3.92;74.75
3844;BME280;1937;51.444;6.484;2023-03-16T00:52:38;66550.41;;;4.16;75.13
3844;BME280;1937;51.444;6.484;2023-03-16T00:55:09;66524.09;;;4.01;75.58
3844;BME280;1937;51.444;6.484;2023-03-16T00:57:37;66504.28;;;4.02;75.00
3844;BME280;1937;51.444;6.484;2023-03-16T01:00:06;66560.25;;;4.13;75.11
3844;BME280;1937;51.444;6.484;2023-03-16T01:02:39;66516.56;;;4.06;75.03
3844;BME280;1937;51.444;6.484;2023-03-16T01:05:10;66558.78;;;4.09;74.67
3844;BME280;1937;51.444;6.484;2023-03-16T01:07:38;66536.00;;;4.03;74.58
3844;BME280;1937;51.444;6.484;2023-03-16T01:10:10;66520.16;;;4.02;75.57
3844;BME280;1937;51.444;6.484;2023-03-16T01:12:39;66541.84;;;4.12;74.82
3844;BME280;1937;51.444;6.484;2023-03-16T01:15:09;66505.38;;;3.98;75.97
3844;BME280;1937;51.444;6.484;2023-03-16T01:17:37;66560.25;;;4.13;75.48
3844;BME280;1937;51.444;6.484;2023-03-16T01:20:06;66525.28;;;4.18;74.43
3844;BME280;1937;51.444;6.484;2023-03-16T01:22:38;66526.06;;;4.01;75.34
3844;BME280;1937;51.444;6.484;2023-03-16T01:25:11;66531.09;;;4.12;74.89
3844;BME280;1937;51.444;6.484;2023-03-16T01:27:40;66552.03;;;4.12;74.47
3844;BME280;1937;51.444;6.484;2023-03-16T01:30:11;66537.00;;;4.10;74.66
3844;BME280;1937;51.444;6.484;2023-03-16T01:32:39;66565.19;;;4.20;74.45
3844;BME280;1937;51.444;6.484;2023-03-16T01:35:09;66517.69;;;4.07;74.96
3844;BME280;1937;51.444;6.484;2023-03-16T01:37:38;66500.94;;;4.03;74.97
3844;BME280;1937;51.444;6.484;2023-03-16T01:40:08;66553.44;;;4.11;74.85
3844;BME280;1937;51.444;6.484;2023-03-16T01:42:57;66533.88;;;4.10;74.68
3844;BME280;1937;51.444;6.484;2023-03-16T01:48:32;66550.78;;;4.07;75.77
3844;BME280;1937;51.444;6.484;2023-03-16T01:51:05;66527.78;;;4.02;75.67
3844;BME280;1937;51.444;6.484;2023-03-16T01:53:35;66546.84;;;4.08;75.10
3844;BME280;1937;51.444;6.484;2023-03-16T01:56:08;66542.91;;;4.09;74.67
3844;BME280;1937;51.444;6.484;2023-03-16T01:58:39;66543.97;;;4.05;75.14
3844;BME280;1937;51.444;6.484;2023-03-16T02:01:11;66540.28;;;4.04;75.04
3844;BME280;1937;51.444;6.484;2023-03-16T02:03:41;66524.19;;;4.06;75.05
3844;BME280;1937;51.444;6.484;2023-03-16T02:06:14;66523.63;;;4.05;75.31
3844;BME280;1937;51.444;6.484;2023-03-16T02:08:46;66537.47;;;4.06;74.88
3844;BME280;1937;51.444;6.484;2023-03-16T02:11:16;66498.03;;;4.01;75.43
3844;BME280;1937;51.444;6.484;2023-03-16T02:13:45;66522.94;;;4.00;75.76
3844;BME280;1937;51.444;6.484;2023-03-16T02:16:14;66507.00;;;3.95;76.10
3844;BME280;1937;51.444;6.484;2023-03-16T02:18:46;66544.75;;;4.15;75.46
3844;BME280;1937;51.444;6.484;2023-03-16T02:21:18;66554.25;;;4.10;75.56
3844;BME280;1937;51.444;6.484;2023-03-16T02:23:51;66502.16;;;3.93;76.60
3844;BME280;1937;51.444;6.484;2023-03-16T02:26:27;66499.28;;;4.06;75.83
3844;BME280;1937;51.444;6.484;2023-03-16T02:29:05;66507.75;;;4.05;75.08
3844;BME280;1937;51.444;6.484;2023-03-16T02:31:40;66534.31;;;4.17;74.87
3844;BME280;1937;51.444;6.484;2023-03-16T02:34:09;66564.91;;;4.33;74.46
3844;BME280;1937;51.444;6.484;2023-03-16T02:36:39;66530.53;;;4.11;75.22
3844;BME280;1937;51.444;6.484;2023-03-16T02:39:10;66524.44;;;4.04;75.54
3844;BME280;1937;51.444;6.484;2023-03-16T02:41:39;66526.31;;;3.99;75.94
3844;BME280;1937;51.444;6.484;2023-03-16T02:44:11;66535.56;;;3.96;75.77
3844;BME280;1937;51.444;6.484;2023-03-16T02:46:44;66546.00;;;3.94;75.62
3844;BME280;1937;51.444;6.484;2023-03-16T02:49:16;66503.63;;;3.97;76.24
3844;BME280;1937;51.444;6.484;2023-03-16T02:51:47;66550.47;;;4.04;76.07
3844;BME280;1937;51.444;6.484;2023-03-16T02:54:15;66518.41;;;4.01;75.89
3844;BME280;1937;51.444;6.484;2023-03-16T02:56:44;66529.75;;;4.02;75.72
3844;BME280;1937;51.444;6.484;2023-03-16T02:59:12;66515.06;;;4.02;75.51
3844;BME280;1937;51.444;6.484;2023-03-16T03:01:41;66533.31;;;4.09;75.58
3844;BME280;1937;51.444;6.484;2023-03-16T03:04:10;66542.34;;;4.08;75.16
3844;BME280;1937;51.444;6.484;2023-03-16T03:06:40;66528.22;;;4.09;75.17
3844;BME280;1937;51.444;6.484;2023-03-16T03:09:11;66488.63;;;4.10;75.22
3844;BME280;1937;51.444;6.484;2023-03-16T03:11:39;66544.00;;;4.21;75.26
3844;BME280;1937;51.444;6.484;2023-03-16T03:14:09;66567.88;;;4.13;75.14
3844;BME280;1937;51.444;6.484;2023-03-16T03:16:37;66563.22;;;4.20;75.05
3844;BME280;1937;51.444;6.484;2023-03-16T03:19:05;66531.28;;;4.21;74.51
3844;BME280;1937;51.444;6.484;2023-03-16T03:21:35;66547.38;;;4.20;75.29
3844;BME280;1937;51.444;6.484;2023-03-16T03:24:03;66559.06;;;4.23;74.97
3844;BME280;1937;51.444;6.484;2023-03-16T03:26:32;66574.47;;;4.17;74.49
3844;BME280;1937;51.444;6.484;2023-03-16T03:29:01;66565.47;;;4.18;74.56
3844;BME280;1937;51.444;6.484;2023-03-16T03:31:29;66549.16;;;4.10;74.88
3844;BME280;1937;51.444;6.484;2023-03-16T03:33:58;66542.53;;;4.18;75.13
3844;BME280;1937;51.444;6.484;2023-03-16T03:36:33;66518.38;;;4.12;74.71
3844;BME280;1937;51.444;6.484;2023-03-16T03:39:04;66589.41;;;4.14;74.34
3844;BME280;1937;51.444;6.484;2023-03-16T03:41:33;66562.66;;;4.20;74.80
3844;BME280;1937;51.444;6.484;2023-03-16T03:44:02;66582.41;;;4.30;74.95
3844;BME280;1937;51.444;6.484;2023-03-16T03:46:31;66517.66;;;4.18;74.68
3844;BME280;1937;51.444;6.484;2023-03-16T03:48:59;66539.06;;;4.15;75.14
3844;BME280;1937;51.444;6.484;2023-03-16T03:51:31;66544.66;;;4.10;75.35
3844;BME280;1937;51.444;6.484;2023-03-16T03:53:59;66579.31;;;4.19;74.96
3844;BME280;1937;51.444;6.484;2023-03-16T03:56:29;66511.78;;;4.08;75.19
3844;BME280;1937;51.444;6.484;2023-03-16T03:58:58;66557.81;;;4.18;75.14
3844;BME280;1937;51.444;6.484;2023-03-16T04:01:26;66557.50;;;4.31;74.53
3844;BME280;1937;51.444;6.484;2023-03-16T04:03:54;66539.50;;;4.22;74.57
3844;BME280;1937;51.444;6.484;2023-03-16T04:06:23;66547.22;;;4.26;74.14
3844;BME280;1937;51.444;6.484;2023-03-16T04:08:51;66530.13;;;4.20;75.40
3844;BME280;1937;51.444;6.484;2023-03-16T04:11:21;66551.31;;;4.19;75.17
3844;BME280;1937;51.444;6.484;2023-03-16T04:13:53;66525.63;;;4.21;74.63
3844;BME280;1937;51.444;6.484;2023-03-16T04:16:21;66557.13;;;4.12;75.08
3844;BME280;1937;51.444;6.484;2023-03-16T04:18:53;66524.09;;;4.01;75.40
3844;BME280;1937;51.444;6.484;2023-03-16T04:21:22;66505.69;;;4.01;75.43
3844;BME280;1937;51.444;6.484;2023-03-16T04:23:51;66534.75;;;3.97;75.22
3844;BME280;1937;51.444;6.484;2023-03-16T04:26:20;66521.06;;;4.05;75.53
3844;BME280;1937;51.444;6.484;2023-03-16T04:28:52;66536.59;;;4.03;75.33
3844;BME280;1937;51.444;6.484;2023-03-16T04:31:21;66563.28;;;4.09;75.51
3844;BME280;1937;51.444;6.484;2023-03-16T04:33:49;66566.94;;;4.21;75.33
3844;BME280;1937;51.444;6.484;2023-03-16T04:36:21;66526.00;;;4.12;75.44
3844;BME280;1937;51.444;6.484;2023-03-16T04:38:50;66561.66;;;4.12;74.82
3844;BME280;1937;51.444;6.484;2023-03-16T04:41:19;66556.56;;;4.12;75.25
3844;BME280;1937;51.444;6.484;2023-03-16T04:43:47;66549.34;;;4.19;75.18
3844;BME280;1937;51.444;6.484;2023-03-16T04:46:17;66533.53;;;4.07;75.23
3844;BME280;1937;51.444;6.484;2023-03-16T04:48:45;66545.66;;;4.18;75.72
3844;BME280;1937;51.444;6.484;2023-03-16T04:51:14;66566.94;;;4.21;75.42
3844;BME280;1937;51.444;6.484;2023-03-16T04:53:43;66539.31;;;4.12;75.62
3844;BME280;1937;51.444;6.484;2023-03-16T04:56:12;66570.44;;;4.13;76.16
3844;BME280;1937;51.444;6.484;2023-03-16T04:58:45;66551.31;;;4.19;76.14
3844;BME280;1937;51.444;6.484;2023-03-16T05:01:15;66580.47;;;4.20;75.39
3844;BME280;1937;51.444;6.484;2023-03-16T05:03:45;66532.66;;;4.20;75.67
3844;BME280;1937;51.444;6.484;2023-03-16T05:06:15;66566.03;;;4.18;75.98
3844;BME280;1937;51.444;6.484;2023-03-16T05:08:44;66558.41;;;4.18;75.33
3844;BME280;1937;51.444;6.484;2023-03-16T05:11:12;66545.31;;;4.16;75.69
3844;BME280;1937;51.444;6.484;2023-03-16T05:13:40;66556.81;;;4.10;75.66
3844;BME280;1937;51.444;6.484;2023-03-16T05:16:09;66553.72;;;4.25;75.75
3844;BME280;1937;51.444;6.484;2023-03-16T05:18:37;66553.66;;;4.36;74.81
3844;BME280;1937;51.444;6.484;2023-03-16T05:21:07;66546.66;;;4.26;75.21
3844;BME280;1937;51.444;6.484;2023-03-16T05:23:35;66558.88;;;4.14;75.37
3844;BME280;1937;51.444;6.484;2023-03-16T05:26:03;66553.56;;;4.32;75.89
3844;BME280;1937;51.444;6.484;2023-03-16T05:28:32;66591.88;;;4.36;74.94
3844;BME280;1937;51.444;6.484;2023-03-16T05:31:00;66546.91;;;4.24;75.25
3844;BME280;1937;51.444;6.484;2023-03-16T05:33:30;66543.63;;;4.30;75.37
3844;BME280;1937;51.444;6.484;2023-03-16T05:35:58;66592.78;;;4.39;74.74
3844;BME280;1937;51.444;6.484;2023-03-16T05:38:30;66558.66;;;4.32;75.15
3844;BME280;1937;51.444;6.484;2023-03-16T05:40:59;66577.41;;;4.35;75.20
3844;BME280;1937;51.444;6.484;2023-03-16T05:43:30;66589.03;;;4.49;75.30
3844;BME280;1937;51.444;6.484;2023-03-16T05:46:01;66576.69;;;4.41;74.76
3844;BME280;1937;51.444;6.484;2023-03-16T05:48:29;66580.78;;;4.33;75.12
3844;BME280;1937;51.444;6.484;2023-03-16T05:50:58;66597.88;;;4.39;74.76
3844;BME280;1937;51.444;6.484;2023-03-16T05:53:27;66557.09;;;4.24;74.99
3844;BME280;1937;51.444;6.484;2023-03-16T05:55:56;66569.91;;;4.28;75.59
3844;BME280;1937;51.444;6.484;2023-03-16T05:58:25;66586.59;;;4.27;75.50
3844;BME280;1937;51.444;6.484;2023-03-16T06:00:53;66589.47;;;4.30;75.40
3844;BME280;1937;51.444;6.484;2023-03-16T06:03:22;66560.53;;;4.27;74.99
3844;BME280;1937;51.444;6.484;2023-03-16T06:05:51;66577.78;;;4.26;75.20
3844;BME280;1937;51.444;6.484;2023-03-16T06:08:19;66577.22;;;4.26;75.29
3844;BME280;1937;51.444;6.484;2023-03-16T06:10:47;66559.25;;;4.32;75.46
3844;BME280;1937;51.444;6.484;2023-03-16T06:13:17;66590.97;;;4.33;75.45
3844;BME280;1937;51.444;6.484;2023-03-16T06:15:45;66578.94;;;4.27;75.73
3844;BME280;1937;51.444;6.484;2023-03-16T06:18:13;66593.03;;;4.37;75.31
3844;BME280;1937;51.444;6.484;2023-03-16T06:20:42;66600.34;;;4.35;75.42
3844;BME280;1937;51.444;6.484;2023-03-16T06:23:13;66563.47;;;4.45;75.61
3844;BME280;1937;51.444;6.484;2023-03-16T06:25:42;66575.13;;;4.48;75.25
3844;BME280;1937;51.444;6.484;2023-03-16T06:28:10;66606.19;;;4.44;74.48
3844;BME280;1937;51.444;6.484;2023-03-16T06:30:40;66632.59;;;4.47;75.00
3844;BME280;1937;51.444;6.484;2023-03-16T06:33:09;66656.22;;;4.68;74.87
3844;BME280;1937;51.444;6.484;2023-03-16T06:35:37;66625.16;;;4.72;74.22
3844;BME280;1937;51.444;6.484;2023-03-16T06:38:06;66628.63;;;4.75;74.24
3844;BME280;1937;51.444;6.484;2023-03-16T06:40:34;66624.69;;;4.76;74.77
3844;BME280;1937;51.444;6.484;2023-03-16T06:43:03;66618.44;;;4.75;74.34
3844;BME280;1937;51.444;6.484;2023-03-16T06:45:33;66680.03;;;4.82;74.44
3844;BME280;1937;51.444;6.484;2023-03-16T06:48:02;66660.75;;;4.94;73.59
3844;BME280;1937;51.444;6.484;2023-03-16T06:50:30;66670.38;;;4.94;73.62
3844;BME280;1937;51.444;6.484;2023-03-16T06:52:59;66658.81;;;5.11;73.93
3844;BME280;1937;51.444;6.484;2023-03-16T06:55:27;66687.75;;;5.14;73.49
3844;BME280;1937;51.444;6.484;2023-03-16T06:57:56;66666.31;;;5.17;73.45
3844;BME280;1937;51.444;6.484;2023-03-16T07:00:25;66652.47;;;5.05;73.61
3844;BME280;1937;51.444;6.484;2023-03-16T07:02:55;66705.03;;;5.13;73.77
3844;BME280;1937;51.444;6.484;2023-03-16T07:05:25;66664.72;;;5.09;74.00
3844;BME280;1937;51.444;6.484;2023-03-16T07:07:55;66713.56;;;5.27;74.17
3844;BME280;1937;51.444;6.484;2023-03-16T07:10:26;66662.44;;;5.23;73.29
3844;BME280;1937;51.444;6.484;2023-03-16T07:12:56;66711.16;;;5.21;73.80
3844;BME280;1937;51.444;6.484;2023-03-16T07:15:24;66712.97;;;5.27;73.94
3844;BME280;1937;51.444;6.484;2023-03-16T07:17:55;66701.53;;;5.21;73.26
3844;BME280;1937;51.444;6.484;2023-03-16T07:20:23;66693.97;;;5.26;74.25
3844;BME280;1937;51.444;6.484;2023-03-16T07:22:54;66675.50;;;5.10;74.44
3844;BME280;1937;51.444;6.484;2023-03-16T07:25:23;66676.97;;;5.13;74.83
3844;BME280;1937;51.444;6.484;2023-03-16T07:27:51;66640.38;;;5.10;74.96
3844;BME280;1937;51.444;6.484;2023-03-16T07:30:20;66685.94;;;5.08;74.98
3844;BME280;1937;51.444;6.484;2023-03-16T07:32:48;66707.97;;;5.31;74.78
3844;BME280;1937;51.444;6.484;2023-03-16T07:35:18;66700.72;;;5.23;74.94
3844;BME280;1937;51.444;6.484;2023-03-16T07:37:47;66675.44;;;5.21;75.21
3844;BME280;1937;51.444;6.484;2023-03-16T07:40:18;66669.66;;;5.16;75.08
3844;BME280;1937;51.444;6.484;2023-03-16T07:42:49;66656.78;;;5.22;75.04
3844;BME280;1937;51.444;6.484;2023-03-16T07:45:17;66738.78;;;5.14;75.64
3844;BME280;1937;51.444;6.484;2023-03-16T07:47:45;66682.44;;;5.16;75.24
3844;BME280;1937;51.444;6.484;2023-03-16T07:50:14;66701.53;;;5.21;75.37
3844;BME280;1937;51.444;6.484;2023-03-16T07:52:46;66733.69;;;5.41;74.91
3844;BME280;1937;51.444;6.484;2023-03-16T07:55:15;66749.41;;;5.48;74.79
3844;BME280;1937;51.444;6.484;2023-03-16T07:57:45;66714.59;;;5.51;74.50
3844;BME280;1937;51.444;6.484;2023-03-16T08:00:16;66713.63;;;5.59;74.01
3844;BME280;1937;51.444;6.484;2023-03-16T08:02:51;66746.97;;;5.52;74.45
3844;BME280;1937;51.444;6.484;2023-03-16T08:05:21;66731.81;;;5.61;74.05
3844;BME280;1937;51.444;6.484;2023-03-16T08:07:49;66729.66;;;5.53;74.53
3844;BME280;1937;51.444;6.484;2023-03-16T08:10:18;66722.75;;;5.47;74.37
3844;BME280;1937;51.444;6.484;2023-03-16T08:12:48;66761.00;;;5.73;74.33
3844;BME280;1937;51.444;6.484;2023-03-16T08:15:18;66740.16;;;5.82;73.13
3844;BME280;1937;51.444;6.484;2023-03-16T08:17:47;66771.28;;;5.78;73.17
3844;BME280;1937;51.444;6.484;2023-03-16T08:20:15;66767.03;;;5.76;72.95
3844;BME280;1937;51.444;6.484;2023-03-16T08:22:45;66780.06;;;5.90;72.71
3844;BME280;1937;51.444;6.484;2023-03-16T08:25:16;66798.66;;;5.84;73.36
3844;BME280;1937;51.444;6.484;2023-03-16T08:27:45;66791.53;;;5.96;73.08
3844;BME280;1937;51.444;6.484;2023-03-16T08:30:17;66812.25;;;5.83;73.47
3844;BME280;1937;51.444;6.484;2023-03-16T08:32:49;66798.94;;;5.98;73.68
3844;BME280;1937;51.444;6.484;2023-03-16T08:35:17;66801.50;;;5.98;73.22
3844;BME280;1937;51.444;6.484;2023-03-16T08:37:46;66831.84;;;6.11;73.44
3844;BME280;1937;51.444;6.484;2023-03-16T08:40:16;66852.03;;;6.13;73.57
3844;BME280;1937;51.444;6.484;2023-03-16T08:42:46;66840.94;;;6.26;73.22
3844;BME280;1937;51.444;6.484;2023-03-16T08:45:17;66809.84;;;6.18;72.90
3844;BME280;1937;51.444;6.484;2023-03-16T08:47:46;66799.47;;;6.09;73.77
3844;BME280;1937;51.444;6.484;2023-03-16T08:50:15;66845.66;;;6.34;74.31
3844;BME280;1937;51.444;6.484;2023-03-16T08:52:43;66849.47;;;6.40;74.00
3844;BME280;1937;51.444;6.484;2023-03-16T08:55:11;66828.91;;;6.20;74.02
3844;BME280;1937;51.444;6.484;2023-03-16T08:57:41;66842.63;;;6.38;73.26
3844;BME280;1937;51.444;6.484;2023-03-16T09:00:12;66873.81;;;6.50;73.91
3844;BME280;1937;51.444;6.484;2023-03-16T09:02:43;66872.16;;;6.53;73.40
3844;BME280;1937;51.444;6.484;2023-03-16T09:05:14;66826.78;;;6.42;73.78
3844;BME280;1937;51.444;6.484;2023-03-16T09:07:44;66848.50;;;6.48;74.19
3844;BME280;1937;51.444;6.484;2023-03-16T09:10:13;66863.06;;;6.38;74.36
3844;BME280;1937;51.444;6.484;2023-03-16T09:12:42;66853.28;;;6.45;74.90
3844;BME280;1937;51.444;6.484;2023-03-16T09:15:12;66876.63;;;6.48;74.84
3844;BME280;1937;51.444;6.484;2023-03-16T09:17:43;66828.34;;;6.35;74.93
3844;BME280;1937;51.444;6.484;2023-03-16T09:20:14;66891.28;;;6.43;76.36
3844;BME280;1937;51.444;6.484;2023-03-16T09:22:43;66906.69;;;6.74;74.99
3844;BME280;1937;51.444;6.484;2023-03-16T09:25:12;66941.69;;;6.91;74.38
3844;BME280;1937;51.444;6.484;2023-03-16T09:27:41;66926.03;;;6.89;75.50
3844;BME280;1937;51.444;6.484;2023-03-16T09:30:13;66899.16;;;6.83;74.78
3844;BME280;1937;51.444;6.484;2023-03-16T09:32:44;66988.72;;;7.26;74.31
3844;BME280;1937;51.444;6.484;2023-03-16T09:35:15;66921.50;;;7.05;73.09
3844;BME280;1937;51.444;6.484;2023-03-16T09:37:44;66951.94;;;7.07;73.21
3844;BME280;1937;51.444;6.484;2023-03-16T09:40:20;67017.50;;;7.42;72.44
3844;BME280;1937;51.444;6.484;2023-03-16T09:42:53;67009.31;;;7.46;71.84
3844;BME280;1937;51.444;6.484;2023-03-16T09:45:30;66958.59;;;7.42;72.60
3844;BME280;1937;51.444;6.484;2023-03-16T09:48:04;67050.66;;;7.80;72.09
3844;BME280;1937;51.444;6.484;2023-03-16T09:50:35;67081.28;;;8.02;71.01
3844;BME280;1937;51.444;6.484;2023-03-16T09:53:07;67036.63;;;7.74;70.21
3844;BME280;1937;51.444;6.484;2023-03-16T09:55:44;66988.25;;;7.46;70.68
3844;BME280;1937;51.444;6.484;2023-03-16T09:58:18;66980.56;;;7.61;70.31
3844;BME280;1937;51.444;6.484;2023-03-16T10:00:52;67052.66;;;7.79;69.96
3844;BME280;1937;51.444;6.484;2023-03-16T10:03:32;67036.03;;;7.90;69.92
3844;BME280;1937;51.444;6.484;2023-03-16T10:06:04;67108.28;;;8.28;69.34
3844;BME280;1937;51.444;6.484;2023-03-16T10:08:38;67086.00;;;8.27;68.05
3844;BME280;1937;51.444;6.484;2023-03-16T10:11:24;67060.78;;;8.18;68.55
3844;BME280;1937;51.444;6.484;2023-03-16T10:13:59;67065.25;;;8.13;67.63
3844;BME280;1937;51.444;6.484;2023-03-16T10:16:32;67071.22;;;8.11;67.48
3844;BME280;1937;51.444;6.484;2023-03-16T10:19:11;67076.44;;;8.32;67.22
3844;BME280;1937;51.444;6.484;2023-03-16T10:21:41;67075.19;;;8.26;66.36
3844;BME280;1937;51.444;6.484;2023-03-16T10:24:18;67080.66;;;8.29;66.77
3844;BME280;1937;51.444;6.484;2023-03-16T10:26:56;67091.69;;;8.54;66.35
3844;BME280;1937;51.444;6.484;2023-03-16T10:29:26;67151.53;;;8.99;64.95
3844;BME280;1937;51.444;6.484;2023-03-16T10:32:00;67137.19;;;8.80;64.67
3844;BME280;1937;51.444;6.484;2023-03-16T10:34:32;67166.91;;;9.15;63.32
3844;BME280;1937;51.444;6.484;2023-03-16T10:37:01;67166.75;;;9.06;64.04
3844;BME280;1937;51.444;6.484;2023-03-16T10:39:36;67158.97;;;9.17;62.45
3844;BME280;1937;51.444;6.484;2023-03-16T10:42:15;67148.22;;;9.06;63.18
3844;BME280;1937;51.444;6.484;2023-03-16T10:44:45;67215.78;;;9.35;63.24
3844;BME280;1937;51.444;6.484;2023-03-16T10:47:21;67176.03;;;9.30;63.40
3844;BME280;1937;51.444;6.484;2023-03-16T10:49:51;67221.56;;;9.56;63.06
3844;BME280;1937;51.444;6.484;2023-03-16T10:52:22;67279.53;;;9.71;61.56
3844;BME280;1937;51.444;6.484;2023-03-16T10:54:55;67286.41;;;9.57;61.76
3844;BME280;1937;51.444;6.484;2023-03-16T10:57:26;67224.22;;;9.61;62.87
3844;BME280;1937;51.444;6.484;2023-03-16T10:59:58;67259.84;;;9.90;60.70
3844;BME280;1937;51.444;6.484;2023-03-16T11:02:32;67312.28;;;10.13;59.41
3844;BME280;1937;51.444;6.484;2023-03-16T11:05:12;67298.34;;;10.16;58.97
3844;BME280;1937;51.444;6.484;2023-03-16T11:07:48;67295.09;;;10.27;59.16
3844;BME280;1937;51.444;6.484;2023-03-16T11:10:30;67299.06;;;10.26;58.79
3844;BME280;1937;51.444;6.484;2023-03-16T11:13:02;67359.41;;;10.43;58.94
3844;BME280;1937;51.444;6.484;2023-03-16T11:15:37;67421.56;;;10.97;57.53
3844;BME280;1937;51.444;6.484;2023-03-16T11:18:10;67299.06;;;10.26;57.89
3844;BME280;1937;51.444;6.484;2023-03-16T11:20:46;67334.41;;;10.52;58.17
3844;BME280;1937;51.444;6.484;2023-03-16T11:23:15;67465.84;;;11.08;57.31
3844;BME280;1937;51.444;6.484;2023-03-16T11:25:50;67382.44;;;10.85;57.25
3844;BME280;1937;51.444;6.484;2023-03-16T11:28:27;67445.22;;;11.08;58.30
3844;BME280;1937;51.444;6.484;2023-03-16T11:31:05;67546.78;;;11.83;56.73
3844;BME280;1937;51.444;6.484;2023-03-16T11:33:36;67526.16;;;11.83;54.65
3844;BME280;1937;51.444;6.484;2023-03-16T11:36:16;67420.34;;;11.27;55.29
3844;BME280;1937;51.444;6.484;2023-03-16T11:38:51;67399.09;;;11.22;56.11
3844;BME280;1937;51.444;6.484;2023-03-16T11:41:30;67434.00;;;11.21;56.25
3844;BME280;1937;51.444;6.484;2023-03-16T11:44:05;67412.94;;;10.94;56.15
3844;BME280;1937;51.444;6.484;2023-03-16T11:46:45;67338.25;;;10.78;57.14
3844;BME280;1937;51.444;6.484;2023-03-16T11:49:41;67306.88;;;10.46;56.98
3844;BME280;1937;51.444;6.484;2023-03-16T11:52:19;67380.31;;;10.77;57.64
3844;BME280;1937;51.444;6.484;2023-03-16T11:54:54;67344.91;;;10.82;57.52
3844;BME280;1937;51.444;6.484;2023-03-16T11:57:32;67382.84;;;10.92;56.86
3844;BME280;1937;51.444;6.484;2023-03-16T12:00:12;67328.50;;;10.58;57.12
3844;BME280;1937;51.444;6.484;2023-03-16T12:02:57;67321.97;;;10.59;57.58
3844;BME280;1937;51.444;6.484;2023-03-16T12:05:51;67387.84;;;10.83;57.80
3844;BME280;1937;51.444;6.484;2023-03-16T12:08:33;67323.44;;;10.63;57.90
3844;BME280;1937;51.444;6.484;2023-03-16T12:11:09;67314.34;;;10.48;58.46
3844;BME280;1937;51.444;6.484;2023-03-16T12:13:55;67280.00;;;10.30;58.77
3844;BME280;1937;51.444;6.484;2023-03-16T12:16:29;67328.81;;;10.61;59.30
3844;BME280;1937;51.444;6.484;2023-03-16T12:19:00;67366.03;;;10.62;59.16
3844;BME280;1937;51.444;6.484;2023-03-16T12:21:34;67346.19;;;10.72;58.21
3844;BME280;1937;51.444;6.484;2023-03-16T12:24:09;67286.03;;;10.33;58.75
3844;BME280;1937;51.444;6.484;2023-03-16T12:26:42;67347.25;;;10.68;58.43
3844;BME280;1937;51.444;6.484;2023-03-16T12:29:18;67395.50;;;10.79;59.74
3844;BME280;1937;51.444;6.484;2023-03-16T12:31:52;67385.19;;;10.94;58.02
3844;BME280;1937;51.444;6.484;2023-03-16T12:34:28;67411.91;;;11.02;58.26
3844;BME280;1937;51.444;6.484;2023-03-16T12:37:15;67383.59;;;10.86;58.64
3844;BME280;1937;51.444;6.484;2023-03-16T12:42:47;67400.16;;;10.51;58.70
3844;BME280;1937;51.444;6.484;2023-03-16T12:45:23;67352.47;;;10.73;58.68
3844;BME280;1937;51.444;6.484;2023-03-16T12:47:59;67386.91;;;10.96;59.41
3844;BME280;1937;51.444;6.484;2023-03-16T12:50:32;67418.94;;;11.28;58.36
3844;BME280;1937;51.444;6.484;2023-03-16T12:53:00;67470.13;;;11.41;57.70
3844;BME280;1937;51.444;6.484;2023-03-16T12:55:44;67515.25;;;11.83;57.88
3844;BME280;1937;51.444;6.484;2023-03-16T12:58:15;67540.47;;;11.82;56.73
3844;BME280;1937;51.444;6.484;2023-03-16T13:00:44;67492.88;;;11.66;56.38
3844;BME280;1937;51.444;6.484;2023-03-16T13:03:22;67507.44;;;11.78;56.91
3844;BME280;1937;51.444;6.484;2023-03-16T13:05:54;67476.53;;;11.47;57.25
3844;BME280;1937;51.444;6.484;2023-03-16T13:08:23;67476.56;;;11.67;57.87
3844;BME280;1937;51.444;6.484;2023-03-16T13:11:07;67525.72;;;11.92;56.78
3844;BME280;1937;51.444;6.484;2023-03-16T13:13:46;67475.16;;;11.68;57.14
3844;BME280;1937;51.444;6.484;2023-03-16T13:16:24;67453.06;;;11.49;56.66
3844;BME280;1937;51.444;6.484;2023-03-16T13:18:55;67432.25;;;11.56;56.99
3844;BME280;1937;51.444;6.484;2023-03-16T13:21:33;67503.00;;;11.72;56.71
3844;BME280;1937;51.444;6.484;2023-03-16T13:24:13;67491.69;;;11.80;56.68
3844;BME280;1937;51.444;6.484;2023-03-16T13:26:52;67508.00;;;11.95;56.72
3844;BME280;1937;51.444;6.484;2023-03-16T13:29:22;67590.66;;;12.35;56.85
3844;BME280;1937;51.444;6.484;2023-03-16T13:31:52;67543.88;;;12.17;55.41
3844;BME280;1937;51.444;6.484;2023-03-16T13:34:25;67567.47;;;12.04;55.82
3844;BME280;1937;51.444;6.484;2023-03-16T13:36:57;67555.66;;;12.00;55.93
3844;BME280;1937;51.444;6.484;2023-03-16T13:39:27;67482.69;;;11.90;56.37
3844;BME280;1937;51.444;6.484;2023-03-16T13:42:00;67523.88;;;11.86;56.12
3844;BME280;1937;51.444;6.484;2023-03-16T13:44:31;67534.09;;;12.13;57.08
3844;BME280;1937;51.444;6.484;2023-03-16T13:47:03;67587.75;;;12.17;55.73
3844;BME280;1937;51.444;6.484;2023-03-16T13:49:35;67563.88;;;12.12;55.72
3844;BME280;1937;51.444;6.484;2023-03-16T13:52:12;67552.31;;;12.06;55.34
3844;BME280;1937;51.444;6.484;2023-03-16T13:54:41;67577.41;;;12.32;56.21
3844;BME280;1937;51.444;6.484;2023-03-16T13:57:12;67593.53;;;12.38;55.48